createdAt,value
2017-05-23T06:03:46.705Z,59.20
2017-05-23T06:06:16.566Z,41.50
2017-05-23T06:08:46.116Z,41.30
2017-05-23T06:11:19.035Z,41.20
2017-05-23T06:13:56.363Z,41.00
2017-05-23T06:16:26.615Z,41.50
2017-05-23T06:18:57.491Z,40.70
2017-05-23T06:21:27.380Z,40.60
2017-05-23T06:23:57.442Z,40.60
2017-05-23T06:26:28.016Z,40.40
2017-05-23T06:28:57.826Z,40.40
2017-05-23T06:31:28.775Z,40.20
2017-05-23T06:34:00.752Z,40.30
2017-05-23T06:36:30.707Z,40.10
2017-05-23T06:39:03.862Z,40.20
2017-05-23T06:41:33.455Z,39.90
2017-05-23T06:44:04.475Z,39.90
2017-05-23T06:46:38.992Z,39.90
2017-05-23T06:49:09.846Z,39.90
2017-05-23T06:51:39.863Z,39.60
2017-05-23T06:54:10.962Z,39.50
2017-05-23T06:56:42.127Z,39.50
2017-05-23T06:59:13.421Z,39.40
2017-05-23T07:01:42.468Z,39.50
2017-05-23T07:04:15.288Z,39.50
2017-05-23T07:06:46.472Z,39.50
2017-05-23T07:09:17.273Z,39.50
2017-05-23T07:11:49.523Z,39.40
2017-05-23T07:14:19.995Z,39.40
2017-05-23T07:16:50.294Z,39.30
2017-05-23T07:19:20.792Z,38.80
2017-05-23T07:21:52.580Z,39.40
2017-05-23T07:24:25.235Z,39.40
2017-05-23T07:26:55.099Z,39.40
2017-05-23T07:29:26.596Z,39.40
2017-05-23T07:31:56.462Z,39.40
2017-05-23T07:34:27.243Z,39.40
2017-05-23T07:36:59.505Z,39.50
2017-05-23T07:39:31.407Z,39.30
2017-05-23T07:42:01.738Z,39.30
2017-05-23T07:44:32.483Z,39.30
2017-05-23T07:47:03.943Z,39.50
2017-05-23T07:49:35.883Z,39.40
2017-05-23T07:52:06.164Z,39.40
2017-05-23T07:54:36.717Z,39.40
2017-05-23T07:57:06.151Z,39.50
2017-05-23T07:59:37.776Z,39.50
2017-05-23T08:02:08.466Z,39.50
2017-05-23T08:04:38.102Z,39.50
2017-05-23T08:07:07.548Z,39.50
2017-05-23T08:09:39.228Z,39.50
2017-05-23T08:12:09.101Z,39.50
2017-05-23T08:14:39.983Z,39.50
2017-05-23T08:17:11.617Z,39.50
2017-05-23T08:19:42.991Z,39.50
2017-05-23T08:22:13.070Z,39.60
2017-05-23T08:24:42.256Z,39.40
2017-05-23T08:27:12.888Z,39.50
2017-05-23T08:29:43.218Z,39.50
2017-05-23T08:32:14.237Z,39.40
2017-05-23T08:34:46.779Z,39.50
2017-05-23T08:37:17.844Z,39.40
2017-05-23T08:39:49.495Z,39.40
2017-05-23T08:42:20.977Z,39.40
2017-05-23T08:44:51.864Z,39.20
2017-05-23T08:47:21.019Z,39.20
2017-05-23T08:49:51.424Z,39.20
2017-05-23T08:52:21.160Z,39.10
2017-05-23T08:54:51.173Z,39.10
2017-05-23T08:57:22.113Z,39.10
2017-05-23T08:59:53.230Z,39.20
2017-05-23T09:02:23.797Z,39.20
2017-05-23T09:04:54.984Z,39.20
2017-05-23T09:07:23.881Z,39.30
2017-05-23T09:09:54.846Z,39.40
2017-05-23T09:12:23.122Z,39.40
2017-05-23T09:14:53.136Z,39.60
2017-05-23T09:17:23.545Z,39.50
2017-05-23T09:19:55.036Z,39.80
2017-05-23T09:22:25.922Z,39.70
2017-05-23T09:25:03.748Z,40.20
2017-05-23T09:27:40.379Z,39.50
2017-05-23T09:30:09.695Z,39.50
2017-05-23T09:32:38.496Z,39.60
2017-05-23T09:35:07.994Z,39.60
2017-05-23T09:37:39.557Z,39.60
2017-05-23T09:40:08.400Z,39.60
2017-05-23T09:42:40.723Z,39.50
2017-05-23T09:45:12.382Z,39.60
2017-05-23T09:47:40.637Z,39.60
2017-05-23T09:50:11.119Z,40.40
2017-05-23T09:52:44.362Z,39.60
2017-05-23T09:55:15.695Z,39.60
2017-05-23T09:57:44.712Z,39.60
2017-05-23T10:00:16.775Z,39.60
2017-05-23T10:02:47.283Z,40.20
2017-05-23T10:10:43.613Z,39.50
2017-05-23T10:13:13.652Z,39.50
2017-05-23T11:04:07.902Z,42.20
2017-05-23T11:06:36.263Z,39.70
2017-05-23T11:09:04.642Z,39.80
2017-05-23T11:11:33.016Z,39.50
2017-05-23T11:14:01.366Z,38.50
2017-05-23T11:16:29.724Z,37.10
2017-05-23T11:18:58.109Z,38.30
2017-05-23T11:21:26.467Z,39.40
2017-05-23T11:23:54.882Z,38.30
2017-05-23T11:26:23.464Z,37.50
2017-05-23T11:28:51.835Z,37.50
2017-05-23T11:31:19.548Z,37.40
2017-05-23T11:33:47.919Z,33.80
2017-05-23T11:36:16.327Z,32.90
2017-05-23T11:38:44.749Z,33.60
2017-05-23T11:41:13.094Z,33.30
2017-05-23T11:43:41.443Z,33.80
2017-05-23T11:46:09.815Z,35.40
2017-05-23T11:48:38.176Z,34.60
2017-05-23T11:51:06.577Z,35.20
2017-05-23T11:53:34.947Z,34.50
2017-05-23T11:56:03.336Z,34.30
2017-05-23T11:58:31.696Z,35.10
2017-05-23T12:01:00.038Z,34.70
2017-05-23T12:03:28.419Z,36.00
2017-05-23T12:05:56.779Z,36.10
2017-05-23T12:08:25.143Z,36.20
2017-05-23T12:10:53.562Z,35.90
2017-05-23T12:13:21.923Z,35.80
2017-05-23T12:15:50.293Z,35.70
2017-05-23T12:18:18.778Z,34.70
2017-05-23T12:20:47.147Z,33.40
2017-05-23T12:23:15.511Z,35.00
2017-05-23T12:25:43.876Z,34.40
2017-05-23T12:28:12.230Z,36.10
2017-05-23T12:30:40.622Z,35.10
2017-05-23T12:33:09.006Z,32.80
2017-05-23T12:35:37.375Z,34.70
2017-05-23T12:38:05.747Z,34.50
2017-05-23T12:40:34.102Z,32.60
2017-05-23T12:43:02.526Z,35.00
2017-05-23T12:45:30.892Z,33.00
2017-05-23T12:47:59.269Z,30.80
2017-05-23T12:50:27.653Z,31.80
2017-05-23T12:52:56.016Z,32.20
2017-05-23T12:55:32.903Z,32.70
2017-05-23T12:58:01.238Z,30.90
2017-05-23T13:00:29.594Z,31.00
2017-05-23T13:02:57.967Z,31.50
2017-05-23T13:05:26.372Z,32.10
2017-05-23T13:07:54.724Z,31.40
2017-05-23T13:10:25.155Z,33.50
2017-05-23T13:12:53.546Z,33.10
2017-05-23T13:15:21.879Z,31.80
2017-05-23T13:17:50.274Z,30.50
2017-05-23T13:20:18.643Z,33.10
2017-05-23T13:22:47.023Z,35.30
2017-05-23T13:25:15.375Z,32.60
2017-05-23T13:27:43.716Z,32.70
2017-05-23T13:30:12.082Z,33.70
2017-05-23T13:32:40.432Z,34.90
2017-05-23T13:35:08.785Z,34.90
2017-05-23T13:37:37.200Z,36.40
2017-05-23T13:40:05.593Z,34.70
2017-05-23T13:42:33.963Z,34.80
2017-05-23T13:45:02.327Z,33.50
2017-05-23T13:47:30.679Z,34.70
2017-05-23T13:49:59.086Z,34.60
2017-05-23T13:52:27.488Z,35.10
2017-05-23T13:54:55.857Z,35.10
2017-05-23T13:57:24.203Z,36.70
2017-05-23T13:59:52.556Z,34.80
2017-05-23T14:02:20.943Z,36.30
2017-05-23T14:04:49.312Z,34.90
2017-05-23T14:07:17.751Z,32.30
2017-05-23T14:09:46.128Z,34.30
2017-05-23T14:12:13.727Z,34.20
2017-05-23T14:14:42.082Z,34.70
2017-05-23T14:17:10.455Z,33.80
2017-05-23T14:19:38.820Z,32.70
2017-05-23T14:22:06.417Z,32.70
2017-05-23T14:24:34.803Z,36.50
2017-05-23T14:27:03.213Z,34.40
2017-05-23T14:29:31.602Z,34.40
2017-05-23T14:31:59.994Z,33.90
2017-05-23T14:34:28.626Z,34.40
2017-05-23T14:36:57.028Z,36.10
2017-05-23T14:39:24.983Z,36.40
2017-05-23T14:41:53.351Z,36.10
2017-05-23T14:44:21.718Z,37.60
2017-05-23T14:46:50.058Z,37.50
2017-05-23T14:49:18.459Z,38.60
2017-05-23T14:51:46.833Z,38.50
2017-05-23T14:54:15.154Z,38.10
2017-05-23T14:56:43.725Z,38.50
2017-05-23T14:59:12.203Z,38.10
2017-05-23T15:01:40.571Z,37.20
2017-05-23T15:04:09.002Z,37.70
2017-05-23T15:06:37.372Z,38.90
2017-05-23T15:09:05.728Z,40.30
2017-05-23T15:11:33.334Z,40.20
2017-05-23T15:14:01.683Z,42.00
2017-05-23T15:16:30.087Z,41.40
2017-05-23T15:18:58.456Z,42.00
2017-05-23T15:21:26.829Z,41.60
2017-05-23T15:23:55.212Z,42.10
2017-05-23T15:26:23.595Z,41.60
2017-05-23T15:28:51.967Z,42.40
2017-05-23T15:31:20.438Z,42.60
2017-05-23T15:33:48.785Z,43.40
2017-05-23T15:36:17.155Z,42.80
2017-05-23T15:38:45.561Z,43.00
2017-05-23T15:41:13.925Z,42.50
2017-05-23T15:43:42.331Z,43.00
2017-05-23T15:46:10.725Z,42.60
2017-05-23T15:48:39.132Z,42.70
2017-05-23T15:51:07.509Z,43.20
2017-05-23T15:53:35.880Z,43.50
2017-05-23T15:56:04.227Z,44.10
2017-05-23T15:58:32.594Z,43.20
2017-05-23T16:01:01.047Z,44.10
2017-05-23T16:03:29.426Z,42.80
2017-05-23T16:05:57.791Z,43.70
2017-05-23T16:08:26.227Z,43.90
2017-05-23T16:10:54.624Z,43.70
2017-05-23T16:13:22.981Z,43.30
2017-05-23T16:15:51.939Z,43.00
2017-05-23T16:18:20.331Z,42.40
2017-05-23T16:20:48.695Z,42.80
2017-05-23T16:23:17.055Z,41.80
2017-05-23T16:25:45.499Z,40.60
2017-05-23T16:28:13.856Z,41.30
2017-05-23T16:30:42.211Z,40.30
2017-05-23T16:33:10.590Z,39.80
2017-05-23T16:35:38.996Z,39.90
2017-05-23T16:38:07.364Z,41.50
2017-05-23T16:40:35.768Z,43.00
2017-05-23T16:43:04.131Z,42.70
2017-05-23T16:45:32.569Z,42.80
2017-05-23T16:48:00.172Z,42.80
2017-05-23T16:50:28.530Z,43.80
2017-05-23T16:52:56.923Z,43.70
2017-05-23T16:55:25.308Z,44.30
2017-05-23T16:57:54.028Z,44.60
2017-05-23T17:00:22.470Z,44.50
2017-05-23T17:02:50.855Z,45.20
2017-05-23T17:05:19.461Z,46.20
2017-05-23T17:07:48.290Z,44.20
2017-05-23T17:10:16.674Z,44.20
2017-05-23T17:12:45.053Z,44.60
2017-05-23T17:15:13.422Z,44.80
2017-05-23T17:17:41.796Z,44.90
2017-05-23T17:20:10.188Z,45.50
2017-05-23T17:22:38.593Z,45.40
2017-05-23T17:25:06.970Z,45.10
2017-05-23T17:27:35.331Z,44.10
2017-05-23T17:30:03.823Z,42.60
2017-05-23T17:32:32.175Z,42.10
2017-05-23T17:35:00.570Z,42.40
2017-05-23T17:37:29.015Z,44.40
2017-05-23T17:39:57.355Z,44.40
2017-05-23T17:42:25.728Z,44.60
2017-05-23T17:44:54.140Z,44.40
2017-05-23T17:47:22.513Z,43.80
2017-05-23T17:49:50.875Z,43.80
2017-05-23T17:52:18.478Z,43.80
2017-05-23T17:54:46.860Z,44.00
2017-05-23T17:57:14.474Z,44.00
2017-05-23T17:59:42.838Z,45.70
2017-05-23T18:02:11.215Z,46.60
2017-05-23T18:04:39.578Z,46.70
2017-05-23T18:07:07.959Z,46.00
2017-05-23T18:09:36.338Z,46.80
2017-05-23T18:12:04.709Z,46.70
2017-05-23T18:14:33.076Z,46.50
2017-05-23T18:17:01.456Z,46.90
2017-05-23T18:19:29.827Z,46.80
2017-05-23T18:21:58.209Z,46.00
2017-05-23T18:24:26.596Z,45.30
2017-05-23T18:26:54.955Z,45.10
2017-05-23T18:29:23.300Z,45.40
2017-05-23T18:31:51.793Z,44.60
2017-05-23T18:34:20.214Z,44.50
2017-05-23T18:36:48.601Z,44.80
2017-05-23T18:39:16.974Z,45.00
2017-05-23T18:41:45.362Z,45.10
2017-05-23T18:44:13.732Z,44.10
2017-05-23T18:46:42.106Z,44.10
2017-05-23T18:49:10.488Z,44.40
2017-05-23T18:51:38.860Z,44.80
2017-05-23T18:54:07.276Z,45.40
2017-05-23T18:56:35.683Z,45.50
2017-05-23T18:59:04.073Z,45.20
2017-05-23T19:01:32.479Z,45.40
2017-05-23T19:04:00.863Z,45.60
2017-05-23T19:06:29.270Z,45.20
2017-05-23T19:08:57.637Z,43.90
2017-05-23T19:11:26.009Z,43.10
2017-05-23T19:13:54.473Z,43.30
2017-05-23T19:16:22.833Z,43.20
2017-05-23T19:18:51.355Z,43.00
2017-05-23T19:21:19.707Z,43.00
2017-05-23T19:23:48.096Z,43.30
2017-05-23T19:26:16.472Z,43.20
2017-05-23T19:28:44.826Z,43.60
2017-05-23T19:31:13.237Z,44.10
2017-05-23T19:33:41.606Z,43.90
2017-05-23T19:36:09.979Z,44.00
2017-05-23T19:38:38.493Z,43.50
2017-05-23T19:41:06.835Z,43.70
2017-05-23T19:43:35.229Z,43.50
2017-05-23T19:46:03.610Z,43.50
2017-05-23T19:48:32.028Z,43.30
2017-05-23T19:51:01.167Z,43.80
2017-05-23T19:53:29.523Z,43.50
2017-05-23T19:55:57.965Z,44.10
2017-05-23T19:58:26.335Z,44.10
2017-05-23T20:00:54.701Z,44.80
2017-05-23T20:03:23.128Z,44.90
2017-05-23T20:05:51.476Z,44.80
2017-05-23T20:08:19.836Z,44.80
2017-05-23T20:10:48.241Z,44.90
2017-05-23T20:13:16.606Z,45.00
2017-05-23T20:15:44.939Z,45.50
2017-05-23T20:18:13.316Z,45.50
2017-05-23T20:20:41.684Z,45.70
2017-05-23T20:23:10.026Z,46.30
2017-05-23T20:25:38.415Z,46.10
2017-05-23T20:28:06.790Z,45.70
2017-05-23T20:30:35.336Z,45.70
2017-05-23T20:33:03.753Z,46.10
2017-05-23T20:35:36.070Z,46.30
2017-05-23T20:38:04.451Z,46.50
2017-05-23T20:40:32.807Z,47.20
2017-05-23T20:43:01.155Z,46.40
2017-05-23T20:45:29.580Z,46.30
2017-05-23T20:47:57.952Z,46.40
2017-05-23T20:50:26.386Z,46.20
2017-05-23T20:52:54.738Z,47.20
2017-05-23T20:55:23.112Z,46.30
2017-05-23T20:57:51.479Z,47.00
2017-05-23T21:00:19.846Z,46.60
2017-05-23T21:02:48.240Z,47.10
2017-05-23T21:05:16.599Z,47.00
2017-05-23T21:07:44.980Z,46.90
2017-05-23T21:10:13.342Z,46.90
2017-05-23T21:12:41.756Z,47.70
2017-05-23T21:15:10.119Z,48.00
2017-05-23T21:17:38.468Z,48.20
2017-05-23T21:20:06.830Z,48.70
2017-05-23T21:22:35.260Z,48.40
2017-05-23T21:25:03.612Z,49.80
2017-05-23T21:27:32.031Z,49.30
2017-05-23T21:30:00.403Z,50.20
2017-05-23T21:32:28.763Z,49.80
2017-05-23T21:34:57.123Z,49.70
2017-05-23T21:37:25.475Z,50.60
2017-05-23T21:39:53.875Z,51.60
2017-05-23T21:42:22.220Z,51.70
2017-05-23T21:44:50.575Z,52.60
2017-05-23T21:47:18.940Z,53.20
2017-05-23T21:49:47.368Z,53.30
2017-05-23T21:52:15.826Z,52.90
2017-05-23T21:54:44.168Z,53.00
2017-05-23T21:57:12.567Z,53.60
2017-05-23T21:59:40.947Z,53.10
2017-05-23T22:02:09.288Z,52.70
2017-05-23T22:04:37.667Z,52.40
2017-05-23T22:07:06.022Z,52.30
2017-05-23T22:09:34.379Z,52.40
2017-05-23T22:12:01.971Z,52.30
2017-05-23T22:14:30.480Z,53.00
2017-05-23T22:16:58.826Z,52.80
2017-05-23T22:19:27.214Z,53.30
2017-05-23T22:21:55.637Z,53.40
2017-05-23T22:24:24.058Z,53.10
2017-05-23T22:26:52.442Z,53.80
2017-05-23T22:29:20.823Z,54.20
2017-05-23T22:31:49.176Z,54.80
2017-05-23T22:34:18.454Z,55.00
2017-05-23T22:36:46.823Z,54.20
2017-05-23T22:39:15.173Z,54.40
2017-05-23T22:41:43.558Z,54.90
2017-05-23T22:44:11.908Z,55.60
2017-05-23T22:46:40.250Z,55.10
2017-05-23T22:49:08.611Z,55.20
2017-05-23T22:51:36.977Z,55.50
2017-05-23T22:54:05.363Z,55.20
2017-05-23T22:56:33.719Z,55.40
2017-05-23T22:59:02.068Z,55.60
2017-05-23T23:01:30.438Z,55.50
2017-05-23T23:03:58.791Z,55.70
2017-05-23T23:06:27.139Z,56.80
2017-05-23T23:08:55.515Z,56.20
2017-05-23T23:11:23.919Z,56.30
2017-05-23T23:13:52.330Z,56.50
2017-05-23T23:16:20.675Z,56.40
2017-05-23T23:18:49.027Z,57.10
2017-05-23T23:21:17.397Z,57.20
2017-05-23T23:23:45.750Z,57.20
2017-05-23T23:26:14.123Z,57.30
2017-05-23T23:28:42.517Z,57.40
2017-05-23T23:31:10.870Z,57.70
2017-05-23T23:33:39.266Z,58.70
2017-05-23T23:36:07.624Z,58.30
2017-05-23T23:38:35.975Z,58.40
2017-05-23T23:41:04.344Z,58.60
2017-05-23T23:43:32.005Z,59.30
2017-05-23T23:46:00.371Z,58.50
2017-05-23T23:48:28.736Z,58.30
2017-05-23T23:50:57.127Z,59.00
2017-05-23T23:53:25.471Z,59.10
2017-05-23T23:55:53.835Z,58.50
2017-05-23T23:58:22.269Z,58.90
